Time;durP1;ratioP1;P1;durP2;ratioP2;P2;SDS_P1;SDS_P2;PMS_P1;PMS_P2;Temp;Humidity;BMP_temperature;BMP_pressure;BME280_temperature;BME280_humidity;BME280_pressure;Samples;Min_cycle;Max_cycle;Signal;HPM_P1;HPM_P2
2023/10/11 00:03:05;;;;;;;27.02;11.85;;;17.00;99.90;;;;;;5061938;28;20817;-71
2023/10/11 00:05:36;;;;;;;30.92;13.10;;;;;;;;;;5055226;28;20102;-71
2023/10/11 00:08:03;;;;;;;34.42;12.90;;;17.00;99.90;;;;;;5054462;28;20792;-71
2023/10/11 00:10:29;;;;;;;34.72;13.85;;;;;;;;;;5062885;28;20426;-71
2023/10/11 00:12:58;;;;;;;30.52;12.75;;;17.00;99.90;;;;;;5056764;28;20064;-71
2023/10/11 00:15:28;;;;;;;30.45;13.60;;;16.90;99.90;;;;;;5064598;28;20044;-71
2023/10/11 00:17:55;;;;;;;32.85;12.23;;;17.00;99.90;;;;;;5062121;28;20123;-71
2023/10/11 00:23:05;;;;;;;32.45;14.02;;;16.90;99.90;;;;;;5057843;28;20585;-71
2023/10/11 00:25:30;;;;;;;29.90;12.45;;;16.90;99.90;;;;;;5056448;28;20048;-71
2023/10/11 00:27:58;;;;;;;35.10;13.32;;;17.00;99.90;;;;;;5059374;28;20048;-72
2023/10/11 00:30:24;;;;;;;33.25;12.88;;;;;;;;;;5063435;28;20122;-71
2023/10/11 00:32:52;;;;;;;31.88;12.43;;;16.80;99.90;;;;;;5063829;28;20713;-71
2023/10/11 00:35:18;;;;;;;26.35;12.50;;;;;;;;;;5065325;28;20401;-71
2023/10/11 00:37:47;;;;;;;36.20;13.45;;;16.80;99.90;;;;;;5063762;28;20043;-72
2023/10/11 00:40:14;;;;;;;29.88;13.40;;;16.90;99.90;;;;;;5063729;28;20051;-72
2023/10/11 00:42:41;;;;;;;33.90;13.63;;;16.80;99.90;;;;;;5063754;28;20044;-71
2023/10/11 00:45:10;;;;;;;29.23;13.23;;;17.00;99.90;;;;;;5064738;28;20044;-71
2023/10/11 00:47:40;;;;;;;38.60;13.82;;;;;;;;;;5062591;28;20052;-71
2023/10/11 00:50:14;;;;;;;28.35;12.75;;;17.00;99.90;;;;;;5063177;28;20044;-71
2023/10/11 00:52:43;;;;;;;30.98;12.73;;;16.90;99.90;;;;;;5061212;28;20134;-71
2023/10/11 00:55:17;;;;;;;36.92;13.85;;;16.70;99.90;;;;;;5061585;28;20044;-71
2023/10/11 00:57:46;;;;;;;29.23;13.00;;;16.80;99.90;;;;;;5063002;28;20063;-71
2023/10/11 01:00:17;;;;;;;28.90;12.27;;;16.90;99.90;;;;;;5059944;28;20040;-70
2023/10/11 01:02:46;;;;;;;31.20;12.55;;;16.80;99.90;;;;;;5057833;28;20051;-71
2023/10/11 01:05:13;;;;;;;29.80;12.32;;;16.70;99.90;;;;;;5063047;28;20053;-71
2023/10/11 01:07:39;;;;;;;31.92;13.35;;;;;;;;;;5060921;28;20080;-71
2023/10/11 01:10:07;;;;;;;30.15;12.50;;;16.80;99.90;;;;;;5057668;28;20075;-71
2023/10/11 01:12:33;;;;;;;38.08;13.43;;;;;;;;;;5065039;28;20072;-71
2023/10/11 01:14:59;;;;;;;33.25;13.88;;;;;;;;;;5059014;28;20053;-71
2023/10/11 01:17:31;;;;;;;33.75;13.95;;;16.70;99.90;;;;;;5060140;28;20048;-71
2023/10/11 01:19:59;;;;;;;29.42;13.65;;;17.00;99.90;;;;;;5066754;28;20064;-71
2023/10/11 01:22:27;;;;;;;31.13;13.25;;;;;;;;;;5065900;28;20162;-71
2023/10/11 01:24:54;;;;;;;29.45;13.63;;;;;;;;;;5050397;28;20052;-71
2023/10/11 01:27:22;;;;;;;26.15;13.32;;;;;;;;;;5066578;28;20494;-71
2023/10/11 01:29:48;;;;;;;33.78;13.02;;;;;;;;;;5066826;28;20045;-71
2023/10/11 01:32:14;;;;;;;35.67;13.15;;;;;;;;;;5066628;28;20047;-71
2023/10/11 01:34:43;;;;;;;33.70;13.68;;;;;;;;;;5066763;28;20087;-71
2023/10/11 01:37:08;;;;;;;39.85;16.08;;;16.90;99.90;;;;;;5060923;28;20049;-71
2023/10/11 01:39:34;;;;;;;37.20;13.63;;;16.80;99.90;;;;;;5065270;28;20043;-71
2023/10/11 01:42:01;;;;;;;36.13;13.68;;;;;;;;;;5063819;28;20094;-71
2023/10/11 01:44:27;;;;;;;28.23;13.02;;;16.80;99.90;;;;;;5067089;28;20059;-71
2023/10/11 01:46:53;;;;;;;31.38;13.98;;;;;;;;;;5063255;28;20112;-71
2023/10/11 01:49:19;;;;;;;33.00;13.98;;;;;;;;;;5064652;28;20553;-71
2023/10/11 01:51:48;;;;;;;32.97;13.93;;;;;;;;;;5065946;28;20102;-71
2023/10/11 01:54:23;;;;;;;34.28;13.18;;;16.80;99.90;;;;;;5066140;28;20528;-71
2023/10/11 01:56:52;;;;;;;35.95;14.27;;;16.80;99.90;;;;;;5066184;28;20044;-71
2023/10/11 01:59:18;;;;;;;36.90;13.93;;;;;;;;;;5058569;28;20036;-71
2023/10/11 02:01:58;;;;;;;33.15;14.05;;;;;;;;;;5058379;28;20037;-71
2023/10/11 02:04:25;;;;;;;33.55;13.48;;;;;;;;;;5064419;28;20911;-71
2023/10/11 02:06:51;;;;;;;34.22;13.70;;;;;;;;;;5066095;28;20120;-71
2023/10/11 02:09:21;;;;;;;34.97;14.20;;;16.70;99.90;;;;;;5066757;28;20490;-71
2023/10/11 02:11:51;;;;;;;32.28;13.82;;;16.70;99.90;;;;;;5064674;28;20097;-71
2023/10/11 02:14:18;;;;;;;30.83;13.13;;;;;;;;;;5065098;28;20520;-71
2023/10/11 02:16:44;;;;;;;31.88;12.43;;;;;;;;;;5061055;28;20045;-71
2023/10/11 02:19:15;;;;;;;24.48;11.75;;;;;;;;;;5066615;28;20038;-71
2023/10/11 02:21:44;;;;;;;30.38;12.30;;;16.70;99.90;;;;;;5046983;28;20044;-72
2023/10/11 02:24:10;;;;;;;35.50;12.48;;;16.70;99.90;;;;;;5063857;28;20414;-71
2023/10/11 02:26:36;;;;;;;39.88;13.90;;;;;;;;;;5065317;28;20044;-71
2023/10/11 02:29:15;;;;;;;28.58;12.57;;;16.70;99.90;;;;;;5064908;28;20047;-71
2023/10/11 02:31:41;;;;;;;33.42;12.48;;;;;;;;;;5078313;28;20052;-71
2023/10/11 02:34:12;;;;;;;32.17;13.82;;;;;;;;;;5063841;28;20086;-71
2023/10/11 02:36:42;;;;;;;27.25;11.75;;;16.90;99.90;;;;;;5061134;28;20721;-71
2023/10/11 02:39:15;;;;;;;27.08;11.98;;;;;;;;;;5062371;28;20099;-71
2023/10/11 02:41:45;;;;;;;33.63;12.43;;;;;;;;;;5054440;28;20052;-71
2023/10/11 02:44:11;;;;;;;26.13;12.07;;;16.70;99.90;;;;;;5044431;28;20040;-71
2023/10/11 02:46:37;;;;;;;35.08;12.43;;;16.50;99.90;;;;;;5060201;28;20045;-71
2023/10/11 02:49:06;;;;;;;36.42;11.48;;;;;;;;;;5061943;28;20043;-71
2023/10/11 02:51:33;;;;;;;39.78;12.85;;;16.50;99.90;;;;;;5064123;28;20051;-71
2023/10/11 02:54:04;;;;;;;35.38;12.85;;;16.40;99.90;;;;;;5064895;28;20051;-71
2023/10/11 02:56:46;;;;;;;33.70;11.20;;;16.40;99.90;;;;;;5055889;28;20047;-72
2023/10/11 02:59:25;;;;;;;30.85;12.45;;;16.50;99.90;;;;;;5053967;28;20045;-71
2023/10/11 03:02:03;;;;;;;25.55;12.88;;;16.30;99.90;;;;;;5061980;28;20398;-71
2023/10/11 03:04:40;;;;;;;25.77;11.32;;;16.50;99.90;;;;;;5066239;28;20064;-72
2023/10/11 03:07:12;;;;;;;31.42;11.20;;;16.40;99.90;;;;;;5064948;28;20048;-71
2023/10/11 03:09:40;;;;;;;33.70;12.18;;;16.40;99.90;;;;;;5064184;28;20041;-71
2023/10/11 03:12:19;;;;;;;26.50;10.45;;;16.50;99.90;;;;;;5057635;28;20494;-71
2023/10/11 03:14:46;;;;;;;30.95;11.50;;;16.30;99.90;;;;;;5062345;28;20334;-71
2023/10/11 03:17:15;;;;;;;32.88;11.18;;;16.30;99.90;;;;;;5063485;28;20083;-71
2023/10/11 03:19:42;;;;;;;33.33;12.52;;;16.50;99.90;;;;;;5075752;28;20045;-71
2023/10/11 03:22:09;;;;;;;31.70;10.60;;;16.60;99.90;;;;;;5058579;28;20062;-71
2023/10/11 03:24:40;;;;;;;24.92;9.95;;;;;;;;;;5063142;28;20036;-72
2023/10/11 03:27:09;;;;;;;27.67;11.38;;;;;;;;;;5045025;28;20080;-71
2023/10/11 03:29:35;;;;;;;33.05;11.20;;;;;;;;;;5063891;28;20048;-71
2023/10/11 03:32:04;;;;;;;25.80;10.75;;;16.50;99.90;;;;;;5061646;28;20037;-71
2023/10/11 03:34:29;;;;;;;28.60;10.73;;;16.40;99.90;;;;;;5061097;28;20045;-71
2023/10/11 03:36:59;;;;;;;25.05;11.38;;;;;;;;;;5057363;28;20122;-71
2023/10/11 03:39:39;;;;;;;24.85;10.80;;;;;;;;;;5062560;28;20052;-71
2023/10/11 03:44:45;;;;;;;25.92;11.32;;;16.60;99.90;;;;;;5057666;28;20098;-71
2023/10/11 03:47:14;;;;;;;33.95;11.63;;;16.60;99.90;;;;;;5062918;28;20051;-72
2023/10/11 03:52:22;;;;;;;31.17;10.43;;;16.50;99.90;;;;;;5049035;28;20052;-71
2023/10/11 03:55:05;;;;;;;31.75;11.52;;;16.40;99.90;;;;;;5060199;28;20052;-71
2023/10/11 03:57:35;;;;;;;25.80;10.18;;;;;;;;;;5062164;28;20051;-71
2023/10/11 04:00:09;;;;;;;28.02;10.32;;;16.50;99.90;;;;;;5061803;28;20577;-71
2023/10/11 04:02:34;;;;;;;28.30;11.33;;;16.40;99.90;;;;;;5061057;28;20384;-71
2023/10/11 04:05:03;;;;;;;24.58;10.10;;;;;;;;;;5042645;28;20058;-71
2023/10/11 04:07:31;;;;;;;29.45;10.85;;;;;;;;;;5060888;28;20056;-71
2023/10/11 04:10:04;;;;;;;28.33;10.45;;;16.50;99.90;;;;;;5063379;28;20708;-71
2023/10/11 04:12:30;;;;;;;29.73;11.57;;;16.40;99.90;;;;;;5059228;28;20121;-71
2023/10/11 04:14:58;;;;;;;33.15;11.63;;;;;;;;;;5061839;28;20720;-72
2023/10/11 04:19:52;;;;;;;28.02;11.27;;;16.90;99.90;;;;;;5061415;28;20058;-72
2023/10/11 04:22:23;;;;;;;30.45;11.55;;;16.70;99.90;;;;;;5060210;28;20053;-71
2023/10/11 04:24:55;;;;;;;31.33;11.48;;;16.60;99.90;;;;;;5060532;28;20052;-71
2023/10/11 04:29:51;;;;;;;31.00;11.95;;;16.50;99.90;;;;;;5060874;28;20413;-71
2023/10/11 04:32:45;;;;;;;30.33;11.10;;;16.90;99.90;;;;;;5062291;28;20045;-71
2023/10/11 04:35:25;;;;;;;33.90;11.35;;;16.80;99.90;;;;;;5058040;28;20543;-72
2023/10/11 04:38:03;;;;;;;31.50;11.48;;;16.50;99.90;;;;;;5061627;28;20044;-71
2023/10/11 04:43:04;;;;;;;30.15;11.80;;;;;;;;;;5061789;28;20059;-71
2023/10/11 04:45:45;;;;;;;28.65;11.48;;;16.60;99.90;;;;;;5062394;28;20040;-71
2023/10/11 04:48:14;;;;;;;34.63;12.43;;;;;;;;;;5065780;28;20117;-72
2023/10/11 04:50:47;;;;;;;42.08;13.23;;;16.60;99.90;;;;;;5065981;28;20448;-71
2023/10/11 04:53:21;;;;;;;26.65;11.23;;;16.50;99.90;;;;;;5067038;28;20127;-71
2023/10/11 04:56:02;;;;;;;29.40;10.75;;;16.50;99.90;;;;;;5065722;28;20048;-72
2023/10/11 04:58:50;;;;;;;30.90;12.43;;;16.60;99.90;;;;;;5066061;28;20052;-71
2023/10/11 05:01:22;;;;;;;30.75;12.10;;;16.50;99.90;;;;;;5066321;28;20098;-71
2023/10/11 05:03:59;;;;;;;40.78;13.35;;;16.50;99.90;;;;;;5065453;28;20044;-72
2023/10/11 05:06:39;;;;;;;32.58;12.40;;;16.50;99.90;;;;;;5061775;28;20059;-71
2023/10/11 05:11:46;;;;;;;37.58;12.70;;;;;;;;;;5065687;28;20048;-71
2023/10/11 05:14:29;;;;;;;30.05;11.85;;;;;;;;;;5066269;28;20502;-71
2023/10/11 05:19:45;;;;;;;34.35;13.18;;;16.60;99.90;;;;;;5063572;28;20086;-71
2023/10/11 05:22:17;;;;;;;33.67;12.68;;;;;;;;;;5066099;28;20044;-71
2023/10/11 05:30:06;;;;;;;35.17;13.43;;;16.50;99.90;;;;;;5066030;28;20101;-71
2023/10/11 05:32:33;;;;;;;38.47;13.30;;;16.40;99.90;;;;;;5064481;28;20482;-71
2023/10/11 05:51:19;;;;;;;34.95;13.73;;;;;;;;;;5062040;28;20055;-72
2023/10/11 05:53:49;;;;;;;35.50;14.43;;;16.40;99.90;;;;;;5057359;28;20056;-71
2023/10/11 05:56:20;;;;;;;36.03;13.93;;;;;;;;;;5065718;28;20059;-72
2023/10/11 05:58:49;;;;;;;35.45;13.65;;;16.20;99.90;;;;;;5063878;28;20055;-71
2023/10/11 06:01:16;;;;;;;40.60;15.40;;;16.50;99.90;;;;;;5065761;28;20029;-71
2023/10/11 06:03:43;;;;;;;35.35;14.68;;;;;;;;;;5064592;28;20504;-72
2023/10/11 06:06:27;;;;;;;34.30;13.57;;;16.30;99.90;;;;;;5064110;28;20053;-71
2023/10/11 06:08:54;;;;;;;31.52;13.60;;;16.60;99.90;;;;;;5057088;28;20048;-71
2023/10/11 06:11:20;;;;;;;32.58;14.80;;;16.50;99.90;;;;;;5065002;28;20044;-71
2023/10/11 06:13:47;;;;;;;37.25;15.27;;;16.50;99.90;;;;;;5056271;28;20071;-71
2023/10/11 06:16:14;;;;;;;32.47;14.57;;;16.30;99.90;;;;;;5065303;28;20110;-71
2023/10/11 06:18:42;;;;;;;30.90;14.43;;;16.60;99.90;;;;;;5064079;28;20052;-71
2023/10/11 06:21:56;;;;;;;32.10;14.00;;;16.70;99.90;;;;;;5061776;28;20076;-71
2023/10/11 06:24:04;;;;;;;36.30;14.73;;;;;;;;;;5062149;28;20048;-71
2023/10/11 06:29:08;;;;;;;36.47;15.00;;;;;;;;;;5065156;28;20051;-71
2023/10/11 06:31:39;;;;;;;36.88;14.63;;;16.50;99.90;;;;;;5064676;28;20126;-71
2023/10/11 06:34:15;;;;;;;43.45;17.00;;;16.80;99.90;;;;;;5063240;28;20048;-71
2023/10/11 06:36:50;;;;;;;34.28;14.10;;;16.80;99.90;;;;;;5057890;28;20612;-69
2023/10/11 06:42:12;;;;;;;34.90;14.80;;;16.60;99.90;;;;;;5057137;28;20045;-69
2023/10/11 06:44:38;;;;;;;34.38;15.18;;;;;;;;;;5053857;28;20055;-70
2023/10/11 06:47:04;;;;;;;38.13;13.90;;;;;;;;;;5062590;28;20085;-69
2023/10/11 06:49:40;;;;;;;38.58;16.02;;;16.90;99.90;;;;;;5063012;28;20767;-69
2023/10/11 06:52:15;;;;;;;38.95;15.27;;;16.70;99.90;;;;;;5058180;28;20048;-69
2023/10/11 06:54:48;;;;;;;38.67;15.93;;;;;;;;;;5063247;28;20052;-69
2023/10/11 06:57:19;;;;;;;43.65;15.55;;;16.70;99.90;;;;;;5057362;28;20052;-69
2023/10/11 06:59:57;;;;;;;35.38;15.70;;;16.70;99.90;;;;;;5063856;28;20087;-69
2023/10/11 07:02:34;;;;;;;41.80;15.98;;;16.80;99.90;;;;;;5047800;28;20044;-69
2023/10/11 07:05:06;;;;;;;36.47;15.98;;;16.70;99.90;;;;;;5061911;28;20052;-69
2023/10/11 07:07:35;;;;;;;43.17;17.33;;;16.60;99.90;;;;;;5064094;28;20044;-69
2023/10/11 07:10:28;;;;;;;36.20;16.02;;;16.80;99.90;;;;;;5067091;28;20749;-69
2023/10/11 07:13:03;;;;;;;42.05;16.60;;;;;;;;;;5053236;28;20036;-69
2023/10/11 07:15:37;;;;;;;37.92;16.55;;;18.30;99.90;;;;;;5063469;28;20094;-69
2023/10/11 07:18:11;;;;;;;48.27;18.57;;;16.70;99.90;;;;;;5059417;28;20055;-69
2023/10/11 07:21:07;;;;;;;43.15;18.98;;;16.80;99.90;;;;;;5064339;28;20278;-69
2023/10/11 07:23:46;;;;;;;47.15;18.58;;;16.90;99.90;;;;;;5050243;28;20123;-69
2023/10/11 07:29:13;;;;;;;45.97;18.50;;;;;;;;;;5034443;28;20048;-70
2023/10/11 07:31:48;;;;;;;51.72;20.77;;;17.10;99.90;;;;;;5072179;28;20746;-68
2023/10/11 07:34:18;;;;;;;;;;;17.10;99.90;;;;;;5072552;28;20140;-69
2023/10/11 07:36:45;;;;;;;45.80;19.50;;;16.90;99.90;;;;;;5062236;28;19974;-69
2023/10/11 07:39:19;;;;;;;51.83;19.80;;;17.00;99.90;;;;;;5064353;28;20086;-69
2023/10/11 07:41:47;;;;;;;55.50;20.33;;;16.90;99.90;;;;;;5062827;28;20044;-69
2023/10/11 07:44:13;;;;;;;49.30;21.67;;;;;;;;;;5064276;28;20045;-70
2023/10/11 07:46:40;;;;;;;51.67;21.42;;;;;;;;;;5065390;28;20835;-70
2023/10/11 07:49:06;;;;;;;51.63;20.50;;;17.10;99.90;;;;;;5066199;28;20114;-70
2023/10/11 07:51:36;;;;;;;50.28;20.65;;;17.00;99.90;;;;;;5063462;28;20490;-69
2023/10/11 07:54:06;;;;;;;49.55;19.98;;;;;;;;;;5062400;28;20120;-69
2023/10/11 07:56:37;;;;;;;44.72;19.10;;;17.10;99.90;;;;;;5056486;28;20059;-69
2023/10/11 07:59:08;;;;;;;52.00;21.27;;;17.10;99.90;;;;;;5049066;28;20073;-69
2023/10/11 08:01:42;;;;;;;55.03;21.02;;;17.30;99.90;;;;;;5064987;28;20044;-69
2023/10/11 08:04:10;;;;;;;44.35;19.60;;;17.00;99.90;;;;;;5062414;28;20448;-69
2023/10/11 08:06:41;;;;;;;50.78;20.38;;;;;;;;;;5063706;28;20052;-69
2023/10/11 08:09:07;;;;;;;51.47;22.38;;;17.10;99.90;;;;;;5065699;28;20036;-69
2023/10/11 08:11:45;;;;;;;50.40;20.67;;;;;;;;;;5068567;28;20098;-69
2023/10/11 08:14:15;;;;;;;48.38;21.38;;;17.10;99.90;;;;;;5064511;28;20048;-69
2023/10/11 08:16:47;;;;;;;54.83;21.48;;;17.20;99.90;;;;;;5063254;28;20102;-69
2023/10/11 08:19:13;;;;;;;44.03;18.67;;;17.00;99.90;;;;;;5062280;28;20174;-69
2023/10/11 08:21:39;;;;;;;49.08;19.25;;;;;;;;;;5063138;28;20093;-69
2023/10/11 08:24:06;;;;;;;42.38;18.73;;;17.20;99.90;;;;;;5063318;28;20044;-69
2023/10/11 08:26:42;;;;;;;42.22;16.40;;;17.00;99.90;;;;;;5069843;28;20478;-69
2023/10/11 08:29:16;;;;;;;33.10;14.13;;;;;;;;;;5064632;28;20060;-69
2023/10/11 08:31:44;;;;;;;35.70;16.50;;;;;;;;;;5063841;28;20052;-69
2023/10/11 08:34:10;;;;;;;41.20;14.68;;;;;;;;;;5059951;28;20312;-69
2023/10/11 08:36:36;;;;;;;33.17;13.23;;;;;;;;;;5063122;28;20254;-69
2023/10/11 08:39:06;;;;;;;24.08;11.85;;;17.30;99.90;;;;;;5060532;28;20463;-69
2023/10/11 08:41:33;;;;;;;24.52;13.45;;;17.30;99.90;;;;;;5051374;28;20052;-69
2023/10/11 08:44:01;;;;;;;34.25;12.98;;;17.40;99.90;;;;;;5063368;28;20036;-69
2023/10/11 08:46:31;;;;;;;28.60;12.60;;;17.30;99.90;;;;;;5063103;28;20045;-69
2023/10/11 08:49:00;;;;;;;31.20;10.35;;;;;;;;;;5047244;28;20524;-69
2023/10/11 08:51:36;;;;;;;21.65;9.55;;;17.20;99.90;;;;;;5063116;28;20044;-70
2023/10/11 08:54:03;;;;;;;20.70;9.05;;;;;;;;;;5059254;28;20656;-70
2023/10/11 08:56:29;;;;;;;26.17;8.18;;;17.20;99.90;;;;;;5065836;28;20509;-70
2023/10/11 08:58:54;;;;;;;21.98;8.88;;;17.40;99.90;;;;;;5066242;28;20033;-69
2023/10/11 09:01:24;;;;;;;21.08;8.40;;;17.40;99.90;;;;;;5063518;28;20891;-69
2023/10/11 09:04:28;;;;;;;18.95;8.10;;;17.40;99.90;;;;;;5062810;28;20519;-70
2023/10/11 09:06:57;;;;;;;21.73;8.35;;;17.40;99.90;;;;;;5023262;28;20425;-70
2023/10/11 09:09:39;;;;;;;22.30;8.77;;;17.40;99.90;;;;;;5057765;28;20055;-69
2023/10/11 09:12:25;;;;;;;16.20;8.65;;;17.40;99.90;;;;;;5063263;28;20040;-69
2023/10/11 09:14:59;;;;;;;22.08;8.18;;;17.40;99.90;;;;;;5067130;28;20106;-70
2023/10/11 09:17:27;;;;;;;22.90;7.75;;;17.40;99.90;;;;;;5057924;28;20120;-69
2023/10/11 09:19:58;;;;;;;22.02;8.80;;;17.30;99.90;;;;;;5065268;28;20040;-70
2023/10/11 09:22:23;;;;;;;16.58;7.55;;;17.40;99.90;;;;;;5063618;28;20055;-70
2023/10/11 09:25:07;;;;;;;21.05;7.10;;;17.30;99.90;;;;;;5056951;28;20049;-70
2023/10/11 09:27:50;;;;;;;15.35;6.82;;;17.50;99.90;;;;;;5063838;28;20048;-69
2023/10/11 09:30:21;;;;;;;14.45;6.80;;;17.70;99.90;;;;;;5069467;28;20527;-69
2023/10/11 09:32:49;;;;;;;20.98;8.32;;;;;;;;;;5063257;28;20055;-70
2023/10/11 09:35:26;;;;;;;17.95;7.13;;;17.60;99.90;;;;;;5050039;28;20559;-69
2023/10/11 09:37:54;;;;;;;19.98;7.75;;;17.50;99.90;;;;;;5057934;28;20049;-69
2023/10/11 09:40:27;;;;;;;17.38;6.88;;;17.70;99.90;;;;;;5069878;28;20048;-69
2023/10/11 09:42:57;;;;;;;22.40;7.50;;;17.60;99.90;;;;;;5073806;28;20040;-69
2023/10/11 09:45:29;;;;;;;19.58;6.93;;;17.80;99.90;;;;;;5067043;28;20067;-69
2023/10/11 09:47:55;;;;;;;19.17;7.07;;;17.70;99.90;;;;;;5067316;28;20048;-69
2023/10/11 09:50:26;;;;;;;21.17;7.43;;;17.60;99.90;;;;;;5071890;28;20044;-70
2023/10/11 09:52:53;;;;;;;16.55;6.68;;;18.10;99.90;;;;;;5051587;28;20036;-69
2023/10/11 09:55:31;;;;;;;19.00;6.97;;;17.80;99.90;;;;;;5071316;28;20058;-69
2023/10/11 09:58:17;;;;;;;18.50;6.32;;;17.80;99.90;;;;;;5065092;28;20118;-70
2023/10/11 10:01:08;;;;;;;17.02;7.05;;;18.20;99.90;;;;;;5066981;28;20110;-70
2023/10/11 10:03:38;;;;;;;17.15;7.60;;;18.10;99.90;;;;;;5059923;28;20032;-70
2023/10/11 10:06:23;;;;;;;14.20;6.50;;;18.30;99.90;;;;;;5067092;28;20048;-69
2023/10/11 10:09:16;;;;;;;18.30;6.40;;;17.80;99.90;;;;;;5066850;28;20573;-69
2023/10/11 10:12:05;;;;;;;12.70;5.35;;;18.20;99.90;;;;;;5064356;28;20515;-69
2023/10/11 10:14:35;;;;;;;12.57;5.95;;;18.20;99.90;;;;;;5070996;28;20056;-69
2023/10/11 10:17:15;;;;;;;11.27;4.68;;;18.20;99.90;;;;;;5064991;28;20052;-70
2023/10/11 10:19:46;;;;;;;15.27;5.32;;;18.20;99.90;;;;;;5062976;28;20090;-69
2023/10/11 10:22:27;;;;;;;10.57;4.53;;;18.30;99.90;;;;;;5070411;28;20047;-69
2023/10/11 10:24:56;;;;;;;10.85;4.90;;;;;;;;;;5070430;28;20054;-69
2023/10/11 10:27:34;;;;;;;13.85;5.88;;;18.40;99.90;;;;;;5069410;28;20046;-69
2023/10/11 10:30:03;;;;;;;14.80;5.63;;;18.00;99.90;;;;;;5065906;28;20123;-69
2023/10/11 10:32:28;;;;;;;15.13;5.30;;;18.20;99.90;;;;;;5068313;28;20111;-69
2023/10/11 10:35:19;;;;;;;8.80;4.72;;;18.00;99.90;;;;;;5069833;28;20214;-70
2023/10/11 10:37:50;;;;;;;14.63;5.18;;;18.30;99.90;;;;;;5047236;28;20079;-69
2023/10/11 10:40:26;;;;;;;19.65;6.07;;;18.30;99.90;;;;;;5065913;28;20044;-69
2023/10/11 10:43:08;;;;;;;11.73;5.70;;;18.50;99.90;;;;;;5063291;28;20554;-69
2023/10/11 10:45:35;;;;;;;9.93;5.25;;;18.50;99.90;;;;;;5070189;28;20048;-69
2023/10/11 10:48:22;;;;;;;12.98;5.18;;;18.50;99.90;;;;;;5066629;28;20036;-69
2023/10/11 10:51:03;;;;;;;11.50;4.43;;;18.60;99.90;;;;;;5067327;28;20043;-69
2023/10/11 10:53:43;;;;;;;12.50;5.32;;;18.70;99.90;;;;;;5078415;28;20056;-69
2023/10/11 10:56:29;;;;;;;11.60;5.63;;;18.60;99.90;;;;;;5066030;28;20072;-69
2023/10/11 10:59:15;;;;;;;10.10;4.45;;;18.90;99.90;;;;;;5063432;28;20395;-69
2023/10/11 11:01:44;;;;;;;12.05;4.32;;;19.00;99.90;;;;;;5064694;28;20067;-69
2023/10/11 11:04:11;;;;;;;8.18;4.20;;;19.00;99.90;;;;;;5064200;28;20493;-70
2023/10/11 11:06:47;;;;;;;9.02;3.95;;;18.90;99.90;;;;;;5065219;28;20057;-70
2023/10/11 11:09:15;;;;;;;12.10;4.82;;;19.00;99.90;;;;;;5059599;28;20048;-69
2023/10/11 11:11:45;;;;;;;12.43;4.20;;;19.10;99.90;;;;;;5065923;28;20051;-70
2023/10/11 11:14:19;;;;;;;15.65;4.05;;;19.10;99.90;;;;;;5061040;28;20095;-69
2023/10/11 11:16:57;;;;;;;12.20;3.90;;;19.20;99.90;;;;;;5072220;28;20041;-69
2023/10/11 11:19:26;;;;;;;9.32;3.65;;;19.00;99.90;;;;;;5071137;28;20059;-69
2023/10/11 11:22:15;;;;;;;12.77;4.63;;;19.20;99.90;;;;;;5068842;28;20049;-69
2023/10/11 11:24:42;;;;;;;10.43;4.05;;;19.20;99.90;;;;;;5061712;28;20084;-69
2023/10/11 11:27:25;;;;;;;10.93;3.88;;;19.20;99.90;;;;;;5066510;28;20040;-69
2023/10/11 11:29:54;;;;;;;8.27;3.80;;;19.20;99.90;;;;;;5065567;28;20044;-69
2023/10/11 11:32:41;;;;;;;8.65;3.85;;;19.10;99.90;;;;;;5066055;28;20098;-69
2023/10/11 11:35:25;;;;;;;10.02;4.28;;;19.00;99.90;;;;;;5065655;28;20115;-69
2023/10/11 11:38:06;;;;;;;8.82;3.35;;;19.10;99.90;;;;;;5062644;28;20041;-70
2023/10/11 11:40:38;;;;;;;7.60;3.25;;;19.00;99.90;;;;;;5061684;28;20367;-69
2023/10/11 11:43:04;;;;;;;9.57;3.40;;;;;;;;;;5064586;28;20036;-70
2023/10/11 11:45:35;;;;;;;9.88;3.65;;;;;;;;;;5064669;28;20056;-68
2023/10/11 11:48:05;;;;;;;9.23;3.30;;;19.00;99.90;;;;;;5066197;28;20036;-68
2023/10/11 11:50:33;;;;;;;7.28;3.42;;;19.00;99.90;;;;;;5059242;28;20482;-68
2023/10/11 11:53:03;;;;;;;8.65;3.10;;;18.90;99.90;;;;;;5060845;28;20043;-68
2023/10/11 11:55:29;;;;;;;9.77;3.50;;;;;;;;;;5063227;28;20044;-68
2023/10/11 11:57:55;;;;;;;7.15;2.95;;;;;;;;;;5057712;28;20105;-68
2023/10/11 12:02:50;;;;;;;14.55;3.33;;;;;;;;;;5057704;28;20057;-68
2023/10/11 12:05:16;;;;;;;8.82;3.13;;;;;;;;;;5065575;28;20139;-69
2023/10/11 12:07:43;;;;;;;8.20;2.97;;;19.00;99.90;;;;;;5066211;28;20498;-69
2023/10/11 12:10:23;;;;;;;12.82;2.90;;;19.20;99.90;;;;;;5063208;28;20044;-69
2023/10/11 12:13:05;;;;;;;7.40;3.13;;;19.20;99.90;;;;;;5064278;28;20033;-69
2023/10/11 12:15:35;;;;;;;8.73;4.32;;;19.20;99.90;;;;;;5062226;28;20059;-69
2023/10/11 12:18:05;;;;;;;7.90;3.83;;;;;;;;;;5062486;28;20051;-69
2023/10/11 12:20:35;;;;;;;9.45;2.92;;;19.40;99.90;;;;;;5064192;28;20040;-70
2023/10/11 12:23:11;;;;;;;8.60;3.53;;;19.20;99.90;;;;;;5065452;28;20075;-69
2023/10/11 12:25:37;;;;;;;12.32;4.47;;;19.30;99.90;;;;;;5061638;28;20060;-69
2023/10/11 12:28:08;;;;;;;13.07;3.78;;;19.50;99.90;;;;;;5062843;28;20486;-70
2023/10/11 12:30:33;;;;;;;14.38;3.40;;;19.50;99.90;;;;;;5060560;28;20052;-68
2023/10/11 12:33:06;;;;;;;10.15;3.40;;;19.30;99.90;;;;;;5061761;28;20044;-68
2023/10/11 12:35:40;;;;;;;9.80;3.22;;;19.40;99.90;;;;;;5043536;28;20417;-68
2023/10/11 12:38:06;;;;;;;11.15;3.53;;;19.30;99.90;;;;;;5065787;28;20040;-68
2023/10/11 12:40:34;;;;;;;8.80;3.03;;;19.50;99.90;;;;;;5061548;28;20049;-70
2023/10/11 12:43:02;;;;;;;9.80;3.05;;;19.50;99.90;;;;;;5056904;28;20152;-69
2023/10/11 12:45:27;;;;;;;9.60;3.42;;;19.50;99.90;;;;;;5052152;28;20055;-70
2023/10/11 12:47:53;;;;;;;8.85;3.20;;;;;;;;;;5063329;28;20486;-69
2023/10/11 12:50:20;;;;;;;13.90;3.30;;;19.40;99.90;;;;;;5065312;28;20100;-69
2023/10/11 12:52:46;;;;;;;10.43;3.45;;;;;;;;;;5064707;28;20044;-69
2023/10/11 12:55:12;;;;;;;9.88;3.67;;;19.40;99.90;;;;;;5061424;28;20422;-69
2023/10/11 12:57:39;;;;;;;9.38;3.08;;;19.50;99.90;;;;;;5060960;28;20086;-69
2023/10/11 13:05:39;;;;;;;9.32;3.25;;;19.40;99.90;;;;;;5053046;28;20057;-69
2023/10/11 13:08:05;;;;;;;12.68;3.63;;;;;;;;;;5059833;28;20057;-68
2023/10/11 13:10:33;;;;;;;11.20;3.70;;;;;;;;;;5068741;28;20058;-68
2023/10/11 13:12:59;;;;;;;10.88;3.25;;;19.60;99.90;;;;;;5060685;28;20040;-69
2023/10/11 13:15:27;;;;;;;11.10;3.95;;;19.60;99.90;;;;;;5067322;28;20233;-69
2023/10/11 13:17:53;;;;;;;13.07;3.40;;;19.60;99.90;;;;;;5067562;28;20503;-69
2023/10/11 13:20:18;;;;;;;8.70;3.63;;;19.50;99.90;;;;;;5062944;28;20056;-69
2023/10/11 13:22:48;;;;;;;8.93;3.47;;;19.50;99.90;;;;;;5068726;28;20409;-70
2023/10/11 13:25:24;;;;;;;13.30;3.33;;;19.40;99.90;;;;;;5059632;28;20059;-70
2023/10/11 13:27:54;;;;;;;12.32;3.58;;;19.50;99.90;;;;;;5049981;28;20080;-69
2023/10/11 13:30:24;;;;;;;10.68;3.10;;;19.40;99.90;;;;;;5066246;28;20070;-70
2023/10/11 13:32:57;;;;;;;8.85;2.97;;;19.40;99.90;;;;;;5066457;28;20032;-70
2023/10/11 13:35:23;;;;;;;10.77;2.97;;;19.40;99.90;;;;;;5065511;28;20048;-69
2023/10/11 13:37:50;;;;;;;14.60;3.45;;;19.30;99.90;;;;;;5065912;28;20050;-69
2023/10/11 13:40:17;;;;;;;12.07;3.42;;;19.30;99.90;;;;;;5067287;28;20564;-68
2023/10/11 13:42:43;;;;;;;16.60;3.63;;;;;;;;;;5066911;28;20072;-68
2023/10/11 13:45:16;;;;;;;9.77;2.88;;;19.40;99.90;;;;;;5066260;28;20055;-68
2023/10/11 13:47:42;;;;;;;8.98;3.53;;;;;;;;;;5044236;28;20052;-70
2023/10/11 13:50:08;;;;;;;10.45;3.58;;;19.40;99.90;;;;;;5067736;28;20040;-70
2023/10/11 13:52:39;;;;;;;8.70;3.10;;;19.40;99.90;;;;;;5069943;28;20391;-70
2023/10/11 13:55:11;;;;;;;10.30;3.45;;;19.30;99.90;;;;;;5063977;28;20056;-70
2023/10/11 13:57:37;;;;;;;10.07;3.33;;;19.30;99.90;;;;;;5063979;28;20587;-70
2023/10/11 14:02:50;;;;;;;10.52;3.47;;;;;;;;;;5062455;28;20048;-70
2023/10/11 14:05:19;;;;;;;11.70;2.90;;;19.30;99.90;;;;;;5068838;28;20135;-70
2023/10/11 14:07:52;;;;;;;16.95;3.70;;;19.40;99.90;;;;;;5080527;28;20040;-70
2023/10/11 14:10:26;;;;;;;9.85;3.22;;;19.30;99.90;;;;;;5068144;28;20047;-70
2023/10/11 14:12:52;;;;;;;;;;;19.40;99.90;;;;;;5059807;28;20044;-70
2023/10/11 14:15:18;;;;;;;9.77;3.35;;;19.30;99.90;;;;;;5068487;28;19974;-69
2023/10/11 14:17:49;;;;;;;9.95;2.25;;;19.50;99.90;;;;;;5065419;28;20043;-69
2023/10/11 14:20:25;;;;;;;8.52;2.53;;;19.40;99.90;;;;;;5057414;28;20048;-69
2023/10/11 14:22:51;;;;;;;10.02;3.25;;;19.50;99.90;;;;;;5068609;28;20086;-69
2023/10/11 14:25:20;;;;;;;6.53;2.75;;;;;;;;;;5066438;28;20049;-69